sensor_id;sensor_type;location;lat;lon;timestamp;temperature;humidity
16485;DHT22;8353;47.856;12.344;2023-02-07T00:02:01;2.20;99.90
16485;DHT22;8353;47.856;12.344;2023-02-07T00:04:32;2.00;99.90
16485;DHT22;8353;47.856;12.344;2023-02-07T00:07:03;1.90;99.90
16485;DHT22;8353;47.856;12.344;2023-02-07T00:09:33;1.90;99.90
16485;DHT22;8353;47.856;12.344;2023-02-07T00:12:05;1.70;99.90
16485;DHT22;8353;47.856;12.344;2023-02-07T00:14:36;1.70;99.90
16485;DHT22;8353;47.856;12.344;2023-02-07T00:17:06;1.70;99.90
16485;DHT22;8353;47.856;12.344;2023-02-07T00:19:36;1.60;99.90
16485;DHT22;8353;47.856;12.344;2023-02-07T00:22:08;1.30;99.90
16485;DHT22;8353;47.856;12.344;2023-02-07T00:24:39;1.50;99.90
16485;DHT22;8353;47.856;12.344;2023-02-07T00:27:10;1.50;99.90
16485;DHT22;8353;47.856;12.344;2023-02-07T00:29:40;1.50;99.90
16485;DHT22;8353;47.856;12.344;2023-02-07T00:32:10;1.30;99.90
16485;DHT22;8353;47.856;12.344;2023-02-07T00:34:41;1.00;99.90
16485;DHT22;8353;47.856;12.344;2023-02-07T00:37:13;0.90;99.90
16485;DHT22;8353;47.856;12.344;2023-02-07T00:39:44;0.90;99.90
16485;DHT22;8353;47.856;12.344;2023-02-07T00:42:14;1.20;99.90
16485;DHT22;8353;47.856;12.344;2023-02-07T00:44:45;1.30;99.90
16485;DHT22;8353;47.856;12.344;2023-02-07T00:47:15;1.20;99.90
16485;DHT22;8353;47.856;12.344;2023-02-07T00:49:46;1.30;99.90
16485;DHT22;8353;47.856;12.344;2023-02-07T00:52:18;1.50;99.90
16485;DHT22;8353;47.856;12.344;2023-02-07T00:54:48;1.20;99.90
16485;DHT22;8353;47.856;12.344;2023-02-07T00:57:19;1.10;99.90
16485;DHT22;8353;47.856;12.344;2023-02-07T00:59:49;1.40;99.90
16485;DHT22;8353;47.856;12.344;2023-02-07T01:02:19;1.50;99.90
16485;DHT22;8353;47.856;12.344;2023-02-07T01:04:50;1.60;99.90
16485;DHT22;8353;47.856;12.344;2023-02-07T01:07:22;1.60;99.90
16485;DHT22;8353;47.856;12.344;2023-02-07T01:09:53;1.60;99.90
16485;DHT22;8353;47.856;12.344;2023-02-07T01:12:24;1.50;99.90
16485;DHT22;8353;47.856;12.344;2023-02-07T01:14:54;1.50;99.90
16485;DHT22;8353;47.856;12.344;2023-02-07T01:17:25;1.30;99.90
16485;DHT22;8353;47.856;12.344;2023-02-07T01:19:57;1.30;99.90
16485;DHT22;8353;47.856;12.344;2023-02-07T01:22:30;1.20;99.90
16485;DHT22;8353;47.856;12.344;2023-02-07T01:25:00;1.30;99.90
16485;DHT22;8353;47.856;12.344;2023-02-07T01:27:33;1.30;99.90
16485;DHT22;8353;47.856;12.344;2023-02-07T01:30:05;1.30;99.90
16485;DHT22;8353;47.856;12.344;2023-02-07T01:32:35;1.30;99.90
16485;DHT22;8353;47.856;12.344;2023-02-07T01:35:06;1.20;99.90
16485;DHT22;8353;47.856;12.344;2023-02-07T01:37:37;1.00;99.90
16485;DHT22;8353;47.856;12.344;2023-02-07T01:40:10;0.60;99.90
16485;DHT22;8353;47.856;12.344;2023-02-07T01:42:40;0.60;99.90
16485;DHT22;8353;47.856;12.344;2023-02-07T01:45:25;0.80;99.90
16485;DHT22;8353;47.856;12.344;2023-02-07T01:47:59;1.20;99.90
16485;DHT22;8353;47.856;12.344;2023-02-07T01:50:31;1.20;99.90
16485;DHT22;8353;47.856;12.344;2023-02-07T01:53:04;0.90;99.90
16485;DHT22;8353;47.856;12.344;2023-02-07T01:55:37;0.60;99.90
16485;DHT22;8353;47.856;12.344;2023-02-07T01:58:09;1.00;99.90
16485;DHT22;8353;47.856;12.344;2023-02-07T02:00:39;0.90;99.90
16485;DHT22;8353;47.856;12.344;2023-02-07T02:03:10;0.70;99.90
16485;DHT22;8353;47.856;12.344;2023-02-07T02:05:41;0.90;99.90
16485;DHT22;8353;47.856;12.344;2023-02-07T02:08:14;0.80;99.90
16485;DHT22;8353;47.856;12.344;2023-02-07T02:10:57;0.90;99.90
16485;DHT22;8353;47.856;12.344;2023-02-07T02:13:38;1.00;99.90
16485;DHT22;8353;47.856;12.344;2023-02-07T02:16:17;0.90;99.90
16485;DHT22;8353;47.856;12.344;2023-02-07T02:19:07;0.70;99.90
16485;DHT22;8353;47.856;12.344;2023-02-07T02:22:04;0.80;99.90
16485;DHT22;8353;47.856;12.344;2023-02-07T02:31:14;0.60;99.90
16485;DHT22;8353;47.856;12.344;2023-02-07T02:33:52;0.50;99.90
16485;DHT22;8353;47.856;12.344;2023-02-07T02:36:31;0.60;99.90
16485;DHT22;8353;47.856;12.344;2023-02-07T02:39:10;0.40;99.90
16485;DHT22;8353;47.856;12.344;2023-02-07T02:41:59;0.40;99.90
16485;DHT22;8353;47.856;12.344;2023-02-07T02:44:35;0.40;99.90
16485;DHT22;8353;47.856;12.344;2023-02-07T02:47:08;0.30;99.90
16485;DHT22;8353;47.856;12.344;2023-02-07T02:49:41;0.00;99.90
16485;DHT22;8353;47.856;12.344;2023-02-07T02:52:12;0.00;99.90
16485;DHT22;8353;47.856;12.344;2023-02-07T02:54:44;-0.10;99.90
16485;DHT22;8353;47.856;12.344;2023-02-07T02:57:36;-0.10;99.90
16485;DHT22;8353;47.856;12.344;2023-02-07T03:00:47;-0.20;99.90
16485;DHT22;8353;47.856;12.344;2023-02-07T03:03:41;-0.30;99.90
16485;DHT22;8353;47.856;12.344;2023-02-07T03:06:27;-0.40;99.90
16485;DHT22;8353;47.856;12.344;2023-02-07T03:09:09;-0.40;99.90
16485;DHT22;8353;47.856;12.344;2023-02-07T03:11:50;-0.30;99.90
16485;DHT22;8353;47.856;12.344;2023-02-07T03:14:52;-0.10;99.90
16485;DHT22;8353;47.856;12.344;2023-02-07T03:17:25;0.10;99.90
16485;DHT22;8353;47.856;12.344;2023-02-07T03:20:02;0.10;99.90
16485;DHT22;8353;47.856;12.344;2023-02-07T03:22:35;0.00;99.90
16485;DHT22;8353;47.856;12.344;2023-02-07T03:25:06;-0.20;99.90
16485;DHT22;8353;47.856;12.344;2023-02-07T03:27:38;-0.20;99.90
16485;DHT22;8353;47.856;12.344;2023-02-07T03:30:13;-0.20;99.90
16485;DHT22;8353;47.856;12.344;2023-02-07T03:32:48;-0.10;99.90
16485;DHT22;8353;47.856;12.344;2023-02-07T03:35:24;0.00;99.90
16485;DHT22;8353;47.856;12.344;2023-02-07T03:37:58;0.20;99.90
16485;DHT22;8353;47.856;12.344;2023-02-07T03:40:32;0.40;99.90
16485;DHT22;8353;47.856;12.344;2023-02-07T03:43:08;0.70;99.90
16485;DHT22;8353;47.856;12.344;2023-02-07T03:45:39;1.00;99.90
16485;DHT22;8353;47.856;12.344;2023-02-07T03:48:10;1.00;99.90
16485;DHT22;8353;47.856;12.344;2023-02-07T03:50:40;1.10;99.90
16485;DHT22;8353;47.856;12.344;2023-02-07T03:53:12;1.00;99.90
16485;DHT22;8353;47.856;12.344;2023-02-07T03:55:42;0.90;99.90
16485;DHT22;8353;47.856;12.344;2023-02-07T03:58:13;0.90;99.90
16485;DHT22;8353;47.856;12.344;2023-02-07T04:00:43;1.10;99.90
16485;DHT22;8353;47.856;12.344;2023-02-07T04:03:14;1.00;99.90
16485;DHT22;8353;47.856;12.344;2023-02-07T04:05:44;1.10;99.90
16485;DHT22;8353;47.856;12.344;2023-02-07T04:08:16;1.10;99.90
16485;DHT22;8353;47.856;12.344;2023-02-07T04:10:56;1.20;99.90
16485;DHT22;8353;47.856;12.344;2023-02-07T04:13:26;1.30;99.90
16485;DHT22;8353;47.856;12.344;2023-02-07T04:15:57;1.10;99.90
16485;DHT22;8353;47.856;12.344;2023-02-07T04:18:27;0.90;99.90
16485;DHT22;8353;47.856;12.344;2023-02-07T04:21:01;1.20;99.90
16485;DHT22;8353;47.856;12.344;2023-02-07T04:23:33;1.30;99.90
16485;DHT22;8353;47.856;12.344;2023-02-07T04:29:06;1.40;99.90
16485;DHT22;8353;47.856;12.344;2023-02-07T04:31:37;1.30;99.90
16485;DHT22;8353;47.856;12.344;2023-02-07T04:34:08;1.20;99.90
16485;DHT22;8353;47.856;12.344;2023-02-07T04:36:39;1.20;99.90
16485;DHT22;8353;47.856;12.344;2023-02-07T04:39:11;1.20;99.90
16485;DHT22;8353;47.856;12.344;2023-02-07T04:41:42;1.30;99.90
16485;DHT22;8353;47.856;12.344;2023-02-07T04:44:12;1.40;99.90
16485;DHT22;8353;47.856;12.344;2023-02-07T04:46:43;1.50;99.90
16485;DHT22;8353;47.856;12.344;2023-02-07T04:49:14;1.40;99.90
16485;DHT22;8353;47.856;12.344;2023-02-07T04:51:44;1.60;99.90
16485;DHT22;8353;47.856;12.344;2023-02-07T04:54:16;1.60;99.90
16485;DHT22;8353;47.856;12.344;2023-02-07T04:56:46;1.40;99.90
16485;DHT22;8353;47.856;12.344;2023-02-07T04:59:17;1.40;99.90
16485;DHT22;8353;47.856;12.344;2023-02-07T05:01:47;1.20;99.90
16485;DHT22;8353;47.856;12.344;2023-02-07T05:04:18;1.20;99.90
16485;DHT22;8353;47.856;12.344;2023-02-07T05:06:49;1.20;99.90
16485;DHT22;8353;47.856;12.344;2023-02-07T05:09:20;1.10;99.90
16485;DHT22;8353;47.856;12.344;2023-02-07T05:11:51;1.10;99.90
16485;DHT22;8353;47.856;12.344;2023-02-07T05:14:21;1.10;99.90
16485;DHT22;8353;47.856;12.344;2023-02-07T05:16:52;1.20;99.90
16485;DHT22;8353;47.856;12.344;2023-02-07T05:19:22;1.30;99.90
16485;DHT22;8353;47.856;12.344;2023-02-07T05:21:53;1.30;99.90
16485;DHT22;8353;47.856;12.344;2023-02-07T05:24:25;1.40;99.90
16485;DHT22;8353;47.856;12.344;2023-02-07T05:26:55;1.30;99.90
16485;DHT22;8353;47.856;12.344;2023-02-07T05:29:25;0.90;99.90
16485;DHT22;8353;47.856;12.344;2023-02-07T05:31:55;1.00;99.90
16485;DHT22;8353;47.856;12.344;2023-02-07T05:34:43;1.10;99.90
16485;DHT22;8353;47.856;12.344;2023-02-07T05:37:13;1.00;99.90
16485;DHT22;8353;47.856;12.344;2023-02-07T05:39:45;1.00;99.90
16485;DHT22;8353;47.856;12.344;2023-02-07T05:42:16;1.10;99.90
16485;DHT22;8353;47.856;12.344;2023-02-07T05:44:46;1.00;99.90
16485;DHT22;8353;47.856;12.344;2023-02-07T05:47:17;0.90;99.90
16485;DHT22;8353;47.856;12.344;2023-02-07T05:49:47;0.90;99.90
16485;DHT22;8353;47.856;12.344;2023-02-07T05:52:18;0.90;99.90
16485;DHT22;8353;47.856;12.344;2023-02-07T05:54:50;1.00;99.90
16485;DHT22;8353;47.856;12.344;2023-02-07T05:57:20;1.10;99.90
16485;DHT22;8353;47.856;12.344;2023-02-07T05:59:51;0.80;99.90
16485;DHT22;8353;47.856;12.344;2023-02-07T06:02:21;0.90;99.90
16485;DHT22;8353;47.856;12.344;2023-02-07T06:04:52;0.80;99.90
16485;DHT22;8353;47.856;12.344;2023-02-07T06:07:22;0.80;99.90
16485;DHT22;8353;47.856;12.344;2023-02-07T06:09:54;0.90;99.90
16485;DHT22;8353;47.856;12.344;2023-02-07T06:12:25;0.90;99.90
16485;DHT22;8353;47.856;12.344;2023-02-07T06:14:55;0.80;99.90
16485;DHT22;8353;47.856;12.344;2023-02-07T06:17:25;0.90;99.90
16485;DHT22;8353;47.856;12.344;2023-02-07T06:19:56;0.90;99.90
16485;DHT22;8353;47.856;12.344;2023-02-07T06:22:27;0.90;99.90
16485;DHT22;8353;47.856;12.344;2023-02-07T06:25:00;0.70;99.90
16485;DHT22;8353;47.856;12.344;2023-02-07T06:27:34;0.50;99.90
16485;DHT22;8353;47.856;12.344;2023-02-07T06:30:05;0.40;99.90
16485;DHT22;8353;47.856;12.344;2023-02-07T06:32:37;0.30;99.90
16485;DHT22;8353;47.856;12.344;2023-02-07T06:35:08;0.40;99.90
16485;DHT22;8353;47.856;12.344;2023-02-07T06:37:38;0.40;99.90
16485;DHT22;8353;47.856;12.344;2023-02-07T06:40:11;0.50;99.90
16485;DHT22;8353;47.856;12.344;2023-02-07T06:42:43;0.60;99.90
16485;DHT22;8353;47.856;12.344;2023-02-07T06:45:14;0.70;99.90
16485;DHT22;8353;47.856;12.344;2023-02-07T06:47:45;0.70;99.90
16485;DHT22;8353;47.856;12.344;2023-02-07T06:50:15;0.50;99.90
16485;DHT22;8353;47.856;12.344;2023-02-07T06:52:46;0.50;99.90
16485;DHT22;8353;47.856;12.344;2023-02-07T06:55:18;0.60;99.90
16485;DHT22;8353;47.856;12.344;2023-02-07T06:57:48;0.60;99.90
16485;DHT22;8353;47.856;12.344;2023-02-07T07:00:20;0.70;99.90
16485;DHT22;8353;47.856;12.344;2023-02-07T07:02:51;0.80;99.90
16485;DHT22;8353;47.856;12.344;2023-02-07T07:05:22;0.80;99.90
16485;DHT22;8353;47.856;12.344;2023-02-07T07:07:52;0.70;99.90
16485;DHT22;8353;47.856;12.344;2023-02-07T07:10:24;0.70;99.90
16485;DHT22;8353;47.856;12.344;2023-02-07T07:12:55;0.70;99.90
16485;DHT22;8353;47.856;12.344;2023-02-07T07:15:25;0.70;99.90
16485;DHT22;8353;47.856;12.344;2023-02-07T07:17:56;0.60;99.90
16485;DHT22;8353;47.856;12.344;2023-02-07T07:20:27;0.60;99.90
16485;DHT22;8353;47.856;12.344;2023-02-07T07:22:58;0.70;99.90
16485;DHT22;8353;47.856;12.344;2023-02-07T07:25:30;0.80;99.90
16485;DHT22;8353;47.856;12.344;2023-02-07T07:28:00;0.90;99.90
16485;DHT22;8353;47.856;12.344;2023-02-07T07:30:31;0.60;99.90
16485;DHT22;8353;47.856;12.344;2023-02-07T07:33:02;0.70;99.90
16485;DHT22;8353;47.856;12.344;2023-02-07T07:35:32;0.90;99.90
16485;DHT22;8353;47.856;12.344;2023-02-07T07:38:02;0.90;99.90
16485;DHT22;8353;47.856;12.344;2023-02-07T07:40:34;1.00;99.90
16485;DHT22;8353;47.856;12.344;2023-02-07T07:43:19;1.10;99.90
16485;DHT22;8353;47.856;12.344;2023-02-07T07:45:54;1.20;99.90
16485;DHT22;8353;47.856;12.344;2023-02-07T07:48:25;1.40;99.90
16485;DHT22;8353;47.856;12.344;2023-02-07T07:50:56;1.60;99.90
16485;DHT22;8353;47.856;12.344;2023-02-07T07:53:27;1.70;99.90
16485;DHT22;8353;47.856;12.344;2023-02-07T07:55:57;1.60;99.90
16485;DHT22;8353;47.856;12.344;2023-02-07T07:58:29;1.80;99.90
16485;DHT22;8353;47.856;12.344;2023-02-07T08:00:59;1.80;99.90
16485;DHT22;8353;47.856;12.344;2023-02-07T08:03:29;1.60;99.90
16485;DHT22;8353;47.856;12.344;2023-02-07T08:06:00;1.50;99.90
16485;DHT22;8353;47.856;12.344;2023-02-07T08:08:30;1.30;99.90
16485;DHT22;8353;47.856;12.344;2023-02-07T08:11:02;1.30;99.90
16485;DHT22;8353;47.856;12.344;2023-02-07T08:13:34;1.40;99.90
16485;DHT22;8353;47.856;12.344;2023-02-07T08:16:06;1.60;99.90
16485;DHT22;8353;47.856;12.344;2023-02-07T08:18:39;1.70;99.90
16485;DHT22;8353;47.856;12.344;2023-02-07T08:21:09;1.70;99.90
16485;DHT22;8353;47.856;12.344;2023-02-07T08:23:40;1.70;99.90
16485;DHT22;8353;47.856;12.344;2023-02-07T08:26:12;1.80;99.90
16485;DHT22;8353;47.856;12.344;2023-02-07T08:28:44;2.00;99.90
16485;DHT22;8353;47.856;12.344;2023-02-07T08:31:16;1.90;99.90
16485;DHT22;8353;47.856;12.344;2023-02-07T08:33:46;1.90;99.90
16485;DHT22;8353;47.856;12.344;2023-02-07T08:36:16;1.90;99.90
16485;DHT22;8353;47.856;12.344;2023-02-07T08:38:47;2.00;99.90
16485;DHT22;8353;47.856;12.344;2023-02-07T08:41:17;2.10;99.90
16485;DHT22;8353;47.856;12.344;2023-02-07T08:43:49;2.10;99.90
16485;DHT22;8353;47.856;12.344;2023-02-07T08:46:20;2.20;99.90
16485;DHT22;8353;47.856;12.344;2023-02-07T08:48:50;2.00;99.90
16485;DHT22;8353;47.856;12.344;2023-02-07T08:51:21;1.90;99.90
16485;DHT22;8353;47.856;12.344;2023-02-07T08:53:52;1.90;99.90
16485;DHT22;8353;47.856;12.344;2023-02-07T08:56:22;2.10;99.90
16485;DHT22;8353;47.856;12.344;2023-02-07T08:58:54;2.00;99.90
16485;DHT22;8353;47.856;12.344;2023-02-07T09:01:25;2.10;99.90
16485;DHT22;8353;47.856;12.344;2023-02-07T09:03:55;2.20;99.90
16485;DHT22;8353;47.856;12.344;2023-02-07T09:06:26;2.40;99.90
16485;DHT22;8353;47.856;12.344;2023-02-07T09:08:56;2.40;99.90
16485;DHT22;8353;47.856;12.344;2023-02-07T09:11:26;2.50;99.90
16485;DHT22;8353;47.856;12.344;2023-02-07T09:13:58;2.50;99.90
16485;DHT22;8353;47.856;12.344;2023-02-07T09:16:29;2.50;99.90
16485;DHT22;8353;47.856;12.344;2023-02-07T09:19:00;2.70;99.90
16485;DHT22;8353;47.856;12.344;2023-02-07T09:21:31;2.90;99.90
16485;DHT22;8353;47.856;12.344;2023-02-07T09:24:02;3.00;99.90
16485;DHT22;8353;47.856;12.344;2023-02-07T09:26:32;3.00;99.90
16485;DHT22;8353;47.856;12.344;2023-02-07T09:29:05;3.00;99.90
16485;DHT22;8353;47.856;12.344;2023-02-07T09:31:36;3.10;99.90
16485;DHT22;8353;47.856;12.344;2023-02-07T09:34:06;3.10;99.90
16485;DHT22;8353;47.856;12.344;2023-02-07T09:36:36;2.90;99.90
16485;DHT22;8353;47.856;12.344;2023-02-07T09:39:07;3.00;99.90
16485;DHT22;8353;47.856;12.344;2023-02-07T09:41:42;3.00;99.90
16485;DHT22;8353;47.856;12.344;2023-02-07T09:44:20;2.80;99.90
16485;DHT22;8353;47.856;12.344;2023-02-07T09:46:59;2.60;99.90
16485;DHT22;8353;47.856;12.344;2023-02-07T09:49:35;2.60;99.90
16485;DHT22;8353;47.856;12.344;2023-02-07T09:52:11;2.80;99.90
16485;DHT22;8353;47.856;12.344;2023-02-07T09:54:45;2.90;99.90
16485;DHT22;8353;47.856;12.344;2023-02-07T09:57:20;2.90;99.90
16485;DHT22;8353;47.856;12.344;2023-02-07T09:59:58;2.70;99.90
16485;DHT22;8353;47.856;12.344;2023-02-07T10:02:35;2.70;99.90
16485;DHT22;8353;47.856;12.344;2023-02-07T10:05:14;2.80;99.90
16485;DHT22;8353;47.856;12.344;2023-02-07T10:07:47;2.70;99.90
16485;DHT22;8353;47.856;12.344;2023-02-07T10:10:22;2.70;99.90
16485;DHT22;8353;47.856;12.344;2023-02-07T10:16:07;2.50;99.90
16485;DHT22;8353;47.856;12.344;2023-02-07T10:18:44;2.40;99.90
16485;DHT22;8353;47.856;12.344;2023-02-07T10:21:23;2.40;99.90
16485;DHT22;8353;47.856;12.344;2023-02-07T10:26:54;2.90;99.90
16485;DHT22;8353;47.856;12.344;2023-02-07T10:29:48;3.20;99.90
16485;DHT22;8353;47.856;12.344;2023-02-07T10:32:23;3.30;99.90
16485;DHT22;8353;47.856;12.344;2023-02-07T10:34:55;3.30;99.90
16485;DHT22;8353;47.856;12.344;2023-02-07T10:37:34;3.30;99.90
16485;DHT22;8353;47.856;12.344;2023-02-07T10:40:12;3.20;99.90
16485;DHT22;8353;47.856;12.344;2023-02-07T10:42:49;3.20;99.90
16485;DHT22;8353;47.856;12.344;2023-02-07T10:45:22;3.40;99.90
16485;DHT22;8353;47.856;12.344;2023-02-07T10:47:54;3.50;99.90
16485;DHT22;8353;47.856;12.344;2023-02-07T10:50:26;3.40;99.90
16485;DHT22;8353;47.856;12.344;2023-02-07T10:52:58;3.40;99.90
16485;DHT22;8353;47.856;12.344;2023-02-07T10:55:38;3.50;99.90
16485;DHT22;8353;47.856;12.344;2023-02-07T10:58:14;3.80;99.90
16485;DHT22;8353;47.856;12.344;2023-02-07T11:00:47;4.00;99.90
16485;DHT22;8353;47.856;12.344;2023-02-07T11:03:21;3.90;99.90
16485;DHT22;8353;47.856;12.344;2023-02-07T11:05:55;4.00;99.90
16485;DHT22;8353;47.856;12.344;2023-02-07T11:08:28;3.90;99.90
16485;DHT22;8353;47.856;12.344;2023-02-07T11:11:20;3.90;99.90
16485;DHT22;8353;47.856;12.344;2023-02-07T11:13:52;3.80;99.90
16485;DHT22;8353;47.856;12.344;2023-02-07T11:16:24;3.80;99.90
16485;DHT22;8353;47.856;12.344;2023-02-07T11:18:57;4.10;99.90
16485;DHT22;8353;47.856;12.344;2023-02-07T11:21:33;4.20;99.90
16485;DHT22;8353;47.856;12.344;2023-02-07T11:24:07;4.20;99.90
16485;DHT22;8353;47.856;12.344;2023-02-07T11:26:45;4.10;99.90
16485;DHT22;8353;47.856;12.344;2023-02-07T11:29:20;4.00;99.90
16485;DHT22;8353;47.856;12.344;2023-02-07T11:31:53;4.10;99.90
16485;DHT22;8353;47.856;12.344;2023-02-07T11:34:43;4.00;99.90
16485;DHT22;8353;47.856;12.344;2023-02-07T11:37:21;4.10;99.90
16485;DHT22;8353;47.856;12.344;2023-02-07T11:39:54;4.30;99.90
16485;DHT22;8353;47.856;12.344;2023-02-07T11:42:29;4.40;99.90
16485;DHT22;8353;47.856;12.344;2023-02-07T11:45:02;4.10;99.90
16485;DHT22;8353;47.856;12.344;2023-02-07T11:47:33;4.00;99.90
16485;DHT22;8353;47.856;12.344;2023-02-07T11:50:15;4.20;99.90
16485;DHT22;8353;47.856;12.344;2023-02-07T11:52:53;4.60;99.90
16485;DHT22;8353;47.856;12.344;2023-02-07T11:55:27;4.40;99.90
16485;DHT22;8353;47.856;12.344;2023-02-07T11:58:02;4.60;99.90
16485;DHT22;8353;47.856;12.344;2023-02-07T12:00:37;4.50;99.90
16485;DHT22;8353;47.856;12.344;2023-02-07T12:03:18;4.50;99.90
16485;DHT22;8353;47.856;12.344;2023-02-07T12:05:54;4.70;99.90
16485;DHT22;8353;47.856;12.344;2023-02-07T12:08:27;4.70;99.90
16485;DHT22;8353;47.856;12.344;2023-02-07T12:11:00;5.00;99.90
16485;DHT22;8353;47.856;12.344;2023-02-07T12:13:35;5.20;99.90
16485;DHT22;8353;47.856;12.344;2023-02-07T12:16:10;5.40;99.90
16485;DHT22;8353;47.856;12.344;2023-02-07T12:18:45;5.50;99.90
16485;DHT22;8353;47.856;12.344;2023-02-07T12:21:22;5.60;99.90
16485;DHT22;8353;47.856;12.344;2023-02-07T12:23:57;5.70;99.90
16485;DHT22;8353;47.856;12.344;2023-02-07T12:26:31;5.60;99.90
16485;DHT22;8353;47.856;12.344;2023-02-07T12:29:12;5.80;99.90
16485;DHT22;8353;47.856;12.344;2023-02-07T12:31:50;5.90;99.90
16485;DHT22;8353;47.856;12.344;2023-02-07T12:34:28;6.00;99.90
16485;DHT22;8353;47.856;12.344;2023-02-07T12:37:04;6.10;99.90
16485;DHT22;8353;47.856;12.344;2023-02-07T12:39:43;6.00;99.90
16485;DHT22;8353;47.856;12.344;2023-02-07T12:42:26;5.60;99.90
16485;DHT22;8353;47.856;12.344;2023-02-07T12:45:00;5.70;99.90
16485;DHT22;8353;47.856;12.344;2023-02-07T12:47:45;5.80;99.90
16485;DHT22;8353;47.856;12.344;2023-02-07T12:50:25;5.80;99.90
16485;DHT22;8353;47.856;12.344;2023-02-07T12:53:14;6.10;99.90
16485;DHT22;8353;47.856;12.344;2023-02-07T12:55:55;5.70;99.90
16485;DHT22;8353;47.856;12.344;2023-02-07T12:58:39;5.50;99.90
16485;DHT22;8353;47.856;12.344;2023-02-07T13:01:19;5.60;99.90
16485;DHT22;8353;47.856;12.344;2023-02-07T13:04:06;5.60;99.90
16485;DHT22;8353;47.856;12.344;2023-02-07T13:06:44;5.60;99.90
16485;DHT22;8353;47.856;12.344;2023-02-07T13:09:25;5.80;99.90
16485;DHT22;8353;47.856;12.344;2023-02-07T13:12:05;6.00;99.90
16485;DHT22;8353;47.856;12.344;2023-02-07T13:15:00;6.00;99.90
16485;DHT22;8353;47.856;12.344;2023-02-07T13:17:42;6.00;99.90
16485;DHT22;8353;47.856;12.344;2023-02-07T13:20:38;6.00;99.90
16485;DHT22;8353;47.856;12.344;2023-02-07T13:23:15;6.20;99.90
16485;DHT22;8353;47.856;12.344;2023-02-07T13:25:51;6.30;99.90
16485;DHT22;8353;47.856;12.344;2023-02-07T13:28:26;6.30;99.90
16485;DHT22;8353;47.856;12.344;2023-02-07T13:30:58;6.30;99.90
16485;DHT22;8353;47.856;12.344;2023-02-07T13:33:32;6.30;99.90
16485;DHT22;8353;47.856;12.344;2023-02-07T13:36:10;6.30;99.90
16485;DHT22;8353;47.856;12.344;2023-02-07T13:38:58;6.40;99.90
16485;DHT22;8353;47.856;12.344;2023-02-07T13:41:42;6.40;99.90
16485;DHT22;8353;47.856;12.344;2023-02-07T13:44:22;6.30;99.90
16485;DHT22;8353;47.856;12.344;2023-02-07T13:47:05;6.40;99.90
16485;DHT22;8353;47.856;12.344;2023-02-07T13:49:44;6.20;99.90
16485;DHT22;8353;47.856;12.344;2023-02-07T13:52:22;6.10;99.90
16485;DHT22;8353;47.856;12.344;2023-02-07T13:55:04;6.00;99.90
16485;DHT22;8353;47.856;12.344;2023-02-07T13:57:41;5.80;99.90
16485;DHT22;8353;47.856;12.344;2023-02-07T14:00:32;6.10;99.90
16485;DHT22;8353;47.856;12.344;2023-02-07T14:03:05;6.40;99.90
16485;DHT22;8353;47.856;12.344;2023-02-07T14:05:43;6.50;99.90
16485;DHT22;8353;47.856;12.344;2023-02-07T14:08:22;6.40;99.90
16485;DHT22;8353;47.856;12.344;2023-02-07T14:10:54;6.50;99.90
16485;DHT22;8353;47.856;12.344;2023-02-07T14:13:31;6.50;99.90
16485;DHT22;8353;47.856;12.344;2023-02-07T14:16:08;6.30;99.90
16485;DHT22;8353;47.856;12.344;2023-02-07T14:18:41;6.40;99.90
16485;DHT22;8353;47.856;12.344;2023-02-07T14:21:31;6.40;99.90
16485;DHT22;8353;47.856;12.344;2023-02-07T14:24:30;6.10;99.90
16485;DHT22;8353;47.856;12.344;2023-02-07T14:27:20;6.00;99.90
16485;DHT22;8353;47.856;12.344;2023-02-07T14:30:18;5.90;99.90
16485;DHT22;8353;47.856;12.344;2023-02-07T14:33:09;6.00;99.90
16485;DHT22;8353;47.856;12.344;2023-02-07T14:39:27;5.90;99.90
16485;DHT22;8353;47.856;12.344;2023-02-07T14:42:11;6.00;99.90
16485;DHT22;8353;47.856;12.344;2023-02-07T14:44:47;5.70;99.90
16485;DHT22;8353;47.856;12.344;2023-02-07T14:47:24;5.40;99.90
16485;DHT22;8353;47.856;12.344;2023-02-07T14:49:57;5.50;99.90
16485;DHT22;8353;47.856;12.344;2023-02-07T14:52:30;5.70;99.90
16485;DHT22;8353;47.856;12.344;2023-02-07T14:55:04;6.00;99.90
16485;DHT22;8353;47.856;12.344;2023-02-07T14:57:45;6.00;99.90
16485;DHT22;8353;47.856;12.344;2023-02-07T15:00:25;6.00;99.90
16485;DHT22;8353;47.856;12.344;2023-02-07T15:02:59;5.80;99.90
16485;DHT22;8353;47.856;12.344;2023-02-07T15:05:34;5.80;99.90
16485;DHT22;8353;47.856;12.344;2023-02-07T15:08:08;5.70;99.90
16485;DHT22;8353;47.856;12.344;2023-02-07T15:10:42;5.80;99.90
16485;DHT22;8353;47.856;12.344;2023-02-07T15:13:18;5.70;99.90
16485;DHT22;8353;47.856;12.344;2023-02-07T15:15:53;5.40;99.90
16485;DHT22;8353;47.856;12.344;2023-02-07T15:18:29;5.20;99.90
16485;DHT22;8353;47.856;12.344;2023-02-07T15:21:02;5.10;99.90
16485;DHT22;8353;47.856;12.344;2023-02-07T15:23:32;5.20;99.90
16485;DHT22;8353;47.856;12.344;2023-02-07T15:26:05;5.20;99.90
16485;DHT22;8353;47.856;12.344;2023-02-07T15:28:35;5.30;99.90
16485;DHT22;8353;47.856;12.344;2023-02-07T15:31:11;5.30;99.90
16485;DHT22;8353;47.856;12.344;2023-02-07T15:33:51;5.40;99.90
16485;DHT22;8353;47.856;12.344;2023-02-07T15:36:30;5.20;99.90
16485;DHT22;8353;47.856;12.344;2023-02-07T15:39:03;5.30;99.90
16485;DHT22;8353;47.856;12.344;2023-02-07T15:41:34;5.50;99.90
16485;DHT22;8353;47.856;12.344;2023-02-07T15:44:06;5.60;99.90
16485;DHT22;8353;47.856;12.344;2023-02-07T15:46:45;5.40;99.90
16485;DHT22;8353;47.856;12.344;2023-02-07T15:49:28;5.30;99.90
16485;DHT22;8353;47.856;12.344;2023-02-07T15:52:07;5.20;99.90
16485;DHT22;8353;47.856;12.344;2023-02-07T15:54:43;5.10;99.90
16485;DHT22;8353;47.856;12.344;2023-02-07T15:57:20;5.10;99.90
16485;DHT22;8353;47.856;12.344;2023-02-07T15:59:53;5.20;99.90
16485;DHT22;8353;47.856;12.344;2023-02-07T16:02:27;5.20;99.90
16485;DHT22;8353;47.856;12.344;2023-02-07T16:05:07;5.30;99.90
16485;DHT22;8353;47.856;12.344;2023-02-07T16:07:44;5.20;99.90
16485;DHT22;8353;47.856;12.344;2023-02-07T16:10:25;5.10;99.90
16485;DHT22;8353;47.856;12.344;2023-02-07T16:13:02;5.20;99.90
16485;DHT22;8353;47.856;12.344;2023-02-07T16:15:35;5.10;99.90
16485;DHT22;8353;47.856;12.344;2023-02-07T16:18:15;5.00;99.90
16485;DHT22;8353;47.856;12.344;2023-02-07T16:21:04;4.90;99.90
16485;DHT22;8353;47.856;12.344;2023-02-07T16:23:36;4.70;99.90
16485;DHT22;8353;47.856;12.344;2023-02-07T16:26:08;4.70;99.90
16485;DHT22;8353;47.856;12.344;2023-02-07T16:28:38;4.80;99.90
16485;DHT22;8353;47.856;12.344;2023-02-07T16:31:09;4.70;99.90
16485;DHT22;8353;47.856;12.344;2023-02-07T16:33:39;4.70;99.90
16485;DHT22;8353;47.856;12.344;2023-02-07T16:36:14;4.90;99.90
16485;DHT22;8353;47.856;12.344;2023-02-07T16:38:45;5.00;99.90
16485;DHT22;8353;47.856;12.344;2023-02-07T16:41:22;4.90;99.90
16485;DHT22;8353;47.856;12.344;2023-02-07T16:43:54;4.90;99.90
16485;DHT22;8353;47.856;12.344;2023-02-07T16:46:24;4.90;99.90
16485;DHT22;8353;47.856;12.344;2023-02-07T16:48:55;4.90;99.90
16485;DHT22;8353;47.856;12.344;2023-02-07T16:51:27;4.80;99.90